NEPP SITE NEAR MIDDLETOWN 4W CT US NWS current weather conditions

sailwx.info

Air temperature 11.0° C

Last reported at 2019-Sep-17 05:25 UTC.
Time now 2019-Sep-17 10:19 UTC

Location: N 41°20' W 072°26'.
View on Google Maps.

See reports from other nearby stations

  
Tides and Currents Weather Stations Pressure Air Temp Water Temp Dewpoint Dewpoint Depression Visibility Wind Speed Wind Dir Waves Ship Positions
date/time (UTC)wind fromknots sea level pressurealtimeterstation pressurevisibilityair tempwater tempwave heightnotes
2019-Sep-17 05:25 11.0
2019-Sep-17 04:25 336 11.5
2019-Sep-17 03:25 282 12.2
2019-Sep-17 02:25 283 13.0
2019-Sep-17 01:25 285 14.2
2019-Sep-17 00:25 003 0 gusting 1 15.7
2019-Sep-16 23:25 301 1 gusting 3 18.2
2019-Sep-16 22:25 266 1 gusting 4 19.4
2019-Sep-16 21:25 278 1 gusting 3 21.1
2019-Sep-16 20:25 291 0 gusting 3 22.4
2019-Sep-16 19:25 272 3 gusting 5 23.6
2019-Sep-16 18:25 250 2 gusting 5 22.7
2019-Sep-16 17:25 282 1 gusting 6 22.2
2019-Sep-16 16:25 321 2 gusting 4 19.7
2019-Sep-16 15:25 336 0 gusting 2 18.2
2019-Sep-16 14:25 315 1 gusting 4 18.2
2019-Sep-16 13:25 331 1 gusting 3 17.8
2019-Sep-16 12:25 17.0
2019-Sep-16 05:25 15.9
2019-Sep-16 04:25 152 1 gusting 2 18.1
2019-Sep-16 03:25 197 2 gusting 4 19.6
2019-Sep-16 02:25 186 17.3
2019-Sep-16 01:25 175 16.4
2019-Sep-16 00:25 174 1 gusting 1 17.3
2019-Sep-15 23:25 245 18.8
2019-Sep-15 22:25 239 21.1
2019-Sep-15 21:25 279 1 gusting 4 22.9
2019-Sep-15 20:25 215 2 gusting 6 25.4
2019-Sep-15 19:25 267 2 gusting 8 25.6
2019-Sep-15 18:25 138 0 gusting 3 25.3
2019-Sep-15 17:25 136 3 gusting 5 24.7
2019-Sep-15 16:25 313 2 gusting 4 23.8
2019-Sep-15 15:25 285 0 gusting 3 23.0
2019-Sep-15 14:25 358 0 gusting 3 21.0
2019-Sep-15 13:25 323 0 gusting 3 19.9
2019-Sep-15 12:25 274 0 gusting 3 18.4